createdAt,value
2024-05-09T00:00:31.093Z,9.76
2024-05-09T00:03:03.339Z,10.37
2024-05-09T00:05:30.363Z,9.55
2024-05-09T00:07:57.252Z,9.98
2024-05-09T00:10:32.671Z,10.06
2024-05-09T00:13:02.621Z,10.00
2024-05-09T00:15:29.459Z,10.24
2024-05-09T00:17:56.316Z,10.22
2024-05-09T00:20:28.578Z,10.37
2024-05-09T00:23:03.091Z,10.31
2024-05-09T00:25:32.590Z,10.12
2024-05-09T00:28:02.344Z,9.87
2024-05-09T00:30:34.369Z,9.71
2024-05-09T00:33:03.786Z,9.73
2024-05-09T00:35:31.193Z,9.70
2024-05-09T00:37:58.074Z,10.00
2024-05-09T00:40:35.007Z,9.87
2024-05-09T00:43:05.975Z,10.00
2024-05-09T00:45:32.761Z,9.85
2024-05-09T00:47:59.766Z,9.89
2024-05-09T00:50:35.332Z,10.20
2024-05-09T00:53:03.723Z,10.44
2024-05-09T00:55:30.503Z,9.96
2024-05-09T00:57:57.657Z,10.12
2024-05-09T01:00:31.589Z,9.97
2024-05-09T01:03:05.779Z,9.65
2024-05-09T01:05:33.325Z,9.77
2024-05-09T01:08:00.165Z,9.63
2024-05-09T01:10:33.697Z,10.07
2024-05-09T01:13:02.076Z,9.71
2024-05-09T01:15:28.852Z,9.56
2024-05-09T01:17:56.073Z,8.28
2024-05-09T01:20:32.043Z,8.92
2024-05-09T01:23:07.169Z,8.26
2024-05-09T01:25:34.060Z,8.06
2024-05-09T01:28:00.825Z,8.43
2024-05-09T01:30:33.997Z,9.12
2024-05-09T01:33:03.563Z,9.48
2024-05-09T01:35:30.719Z,9.31
2024-05-09T01:37:57.561Z,9.56
2024-05-09T01:40:33.546Z,9.52
2024-05-09T01:43:04.532Z,9.76
2024-05-09T01:45:31.410Z,9.62
2024-05-09T01:47:58.527Z,8.95
2024-05-09T01:50:36.688Z,9.13
2024-05-09T01:53:07.418Z,9.43
2024-05-09T01:55:34.302Z,9.66
2024-05-09T01:58:01.098Z,9.27
2024-05-09T02:00:36.955Z,9.12
2024-05-09T02:03:07.783Z,9.04
2024-05-09T02:05:35.171Z,8.95
2024-05-09T02:08:02.480Z,8.73
2024-05-09T02:10:32.721Z,8.64
2024-05-09T02:13:00.820Z,8.62
2024-05-09T02:15:28.010Z,8.62
2024-05-09T02:17:55.542Z,8.47
2024-05-09T02:20:30.412Z,8.45
2024-05-09T02:23:03.179Z,8.17
2024-05-09T02:25:30.488Z,7.91
2024-05-09T02:27:57.336Z,8.18
2024-05-09T02:30:31.091Z,8.21
2024-05-09T02:33:05.937Z,8.25
2024-05-09T02:35:33.006Z,8.34
2024-05-09T02:38:00.009Z,8.17
2024-05-09T02:40:35.574Z,8.13
2024-05-09T02:43:04.886Z,8.13
2024-05-09T02:45:31.648Z,7.90
2024-05-09T02:47:58.727Z,8.00
2024-05-09T02:50:33.797Z,7.92
2024-05-09T02:53:05.294Z,8.09
2024-05-09T02:55:32.185Z,7.92
2024-05-09T02:57:58.955Z,7.96
2024-05-09T03:00:34.580Z,8.05
2024-05-09T03:03:06.145Z,8.17
2024-05-09T03:05:33.389Z,7.99
2024-05-09T03:08:00.495Z,8.07
2024-05-09T03:10:29.170Z,7.87
2024-05-09T03:13:01.693Z,8.13
2024-05-09T03:15:28.419Z,8.29
2024-05-09T03:17:55.285Z,8.24
2024-05-09T03:20:27.587Z,8.15
2024-05-09T03:22:59.454Z,8.36
2024-05-09T03:25:26.232Z,8.12
2024-05-09T03:27:53.369Z,8.16
2024-05-09T03:30:29.595Z,8.07
2024-05-09T03:33:03.861Z,8.07
2024-05-09T03:35:31.159Z,7.97
2024-05-09T03:37:58.532Z,7.92
2024-05-09T03:40:29.015Z,7.83
2024-05-09T03:42:57.846Z,7.82
2024-05-09T03:45:25.033Z,7.78
2024-05-09T03:47:52.887Z,7.95
2024-05-09T03:50:26.336Z,7.86
2024-05-09T03:53:00.815Z,7.98
2024-05-09T03:55:28.241Z,8.00
2024-05-09T03:57:55.443Z,8.18
2024-05-09T04:00:30.823Z,8.11
2024-05-09T04:03:04.139Z,8.24
2024-05-09T04:05:31.522Z,7.96
2024-05-09T04:07:58.520Z,8.03
2024-05-09T04:10:32.333Z,7.93
2024-05-09T04:13:00.791Z,8.15
2024-05-09T04:15:27.615Z,8.08
2024-05-09T04:17:54.573Z,8.17
2024-05-09T04:20:32.502Z,8.47
2024-05-09T04:23:04.772Z,8.55
2024-05-09T04:25:31.587Z,8.49
2024-05-09T04:27:58.373Z,8.40
2024-05-09T04:30:34.497Z,8.36
2024-05-09T04:33:05.887Z,8.24
2024-05-09T04:35:33.038Z,8.25
2024-05-09T04:37:59.831Z,8.39
2024-05-09T04:40:33.092Z,8.63
2024-05-09T04:43:02.682Z,8.92
2024-05-09T04:45:29.428Z,8.81
2024-05-09T04:47:56.435Z,8.84
2024-05-09T04:50:30.337Z,9.29
2024-05-09T04:53:03.541Z,9.65
2024-05-09T04:55:30.561Z,9.46
2024-05-09T04:57:57.741Z,9.41
2024-05-09T05:00:32.708Z,9.54
2024-05-09T05:03:04.028Z,9.23
2024-05-09T05:05:30.882Z,9.20
2024-05-09T05:07:57.767Z,9.31
2024-05-09T05:10:33.023Z,9.10
2024-05-09T05:13:02.422Z,8.63
2024-05-09T05:15:29.172Z,9.24
2024-05-09T05:17:56.479Z,8.88
2024-05-09T05:20:30.700Z,8.72
2024-05-09T05:23:00.265Z,9.01
2024-05-09T05:25:27.107Z,8.79
2024-05-09T05:27:53.819Z,8.57
2024-05-09T05:30:25.268Z,8.54
2024-05-09T05:32:56.134Z,8.61
2024-05-09T05:35:23.224Z,9.04
2024-05-09T05:37:50.061Z,8.93
2024-05-09T05:40:28.160Z,9.01
2024-05-09T05:43:02.287Z,9.09
2024-05-09T05:45:29.042Z,9.13
2024-05-09T05:47:56.087Z,9.19
2024-05-09T05:50:28.033Z,9.20
2024-05-09T05:53:02.212Z,9.49
2024-05-09T05:55:29.034Z,9.66
2024-05-09T05:57:55.821Z,9.79
2024-05-09T06:00:29.770Z,9.90
2024-05-09T06:03:04.722Z,9.93
2024-05-09T06:05:32.895Z,10.04
2024-05-09T06:08:00.428Z,10.40
2024-05-09T06:10:37.010Z,10.51
2024-05-09T06:13:06.430Z,11.05
2024-05-09T06:15:33.196Z,10.90
2024-05-09T06:18:00.237Z,10.97
2024-05-09T06:20:34.921Z,11.31
2024-05-09T06:23:04.230Z,11.61
2024-05-09T06:25:31.142Z,11.85
2024-05-09T06:28:25.114Z,11.93
2024-05-09T06:30:48.110Z,11.52
2024-05-09T06:33:16.364Z,10.87
2024-05-09T06:35:43.869Z,11.50
2024-05-09T06:38:11.276Z,11.10
2024-05-09T06:40:40.183Z,11.35
2024-05-09T06:43:08.715Z,11.93
2024-05-09T06:45:35.469Z,11.68
2024-05-09T06:48:02.587Z,11.14
2024-05-09T06:50:36.834Z,11.43
2024-05-09T06:53:05.066Z,11.41
2024-05-09T06:55:31.907Z,11.65
2024-05-09T06:57:58.694Z,12.01
2024-05-09T07:00:34.418Z,12.02
2024-05-09T07:03:05.980Z,11.77
2024-05-09T07:05:33.033Z,12.01
2024-05-09T07:08:00.406Z,12.10
2024-05-09T07:10:33.101Z,12.48
2024-05-09T07:13:02.281Z,11.70
2024-05-09T07:15:29.168Z,12.14
2024-05-09T07:17:56.198Z,12.33
2024-05-09T07:20:31.999Z,12.19
2024-05-09T07:23:01.686Z,11.72
2024-05-09T07:25:28.794Z,11.50
2024-05-09T07:27:55.822Z,11.94
2024-05-09T07:30:27.724Z,11.65
2024-05-09T07:33:00.525Z,11.79
2024-05-09T07:35:27.795Z,11.40
2024-05-09T07:37:54.805Z,11.66
2024-05-09T07:40:29.013Z,11.99
2024-05-09T07:43:02.340Z,12.17
2024-05-09T07:45:45.245Z,12.35
2024-05-09T07:49:45.395Z,12.49
2024-05-09T07:53:40.795Z,12.64
2024-05-09T07:56:12.158Z,12.80
2024-05-09T07:58:39.250Z,13.07
2024-05-09T08:01:06.563Z,13.08
2024-05-09T08:03:33.647Z,13.27
2024-05-09T08:06:00.604Z,12.69
2024-05-09T08:08:27.455Z,12.75
2024-05-09T08:10:54.683Z,13.05
2024-05-09T08:13:22.095Z,13.24
2024-05-09T08:15:49.398Z,13.07
2024-05-09T08:18:16.797Z,13.07
2024-05-09T08:20:43.924Z,13.40
2024-05-09T08:23:11.107Z,13.40
2024-05-09T08:25:37.951Z,13.77
2024-05-09T08:28:04.824Z,13.72
2024-05-09T08:30:36.798Z,13.11
2024-05-09T08:33:05.120Z,13.50
2024-05-09T08:35:32.394Z,13.51
2024-05-09T08:37:59.222Z,13.83
2024-05-09T08:40:33.414Z,13.86
2024-05-09T08:43:03.085Z,13.96
2024-05-09T08:45:30.378Z,14.03
2024-05-09T08:47:57.278Z,13.88
2024-05-09T08:50:31.999Z,14.07
2024-05-09T08:53:04.876Z,14.07
2024-05-09T08:55:31.822Z,14.03
2024-05-09T08:57:58.562Z,14.19
2024-05-09T09:00:33.886Z,14.14
2024-05-09T09:03:03.927Z,14.26
2024-05-09T09:05:30.942Z,14.67
2024-05-09T09:07:57.954Z,14.82
2024-05-09T09:10:31.057Z,14.61
2024-05-09T09:12:59.109Z,14.47
2024-05-09T09:15:25.821Z,14.19
2024-05-09T09:17:52.798Z,14.17
2024-05-09T09:20:26.326Z,14.43
2024-05-09T09:23:00.310Z,14.20
2024-05-09T09:25:27.466Z,14.14
2024-05-09T09:27:54.722Z,14.28
2024-05-09T09:30:34.084Z,14.21
2024-05-09T09:33:05.131Z,14.03
2024-05-09T09:35:32.805Z,14.27
2024-05-09T09:38:00.124Z,14.32
2024-05-09T09:40:32.936Z,14.03
2024-05-09T09:43:02.002Z,14.45
2024-05-09T09:45:29.255Z,13.99
2024-05-09T09:47:56.545Z,13.96
2024-05-09T09:50:31.579Z,13.68
2024-05-09T09:53:01.670Z,14.38
2024-05-09T09:55:29.019Z,14.84
2024-05-09T09:57:56.486Z,15.10
2024-05-09T10:00:29.931Z,15.02
2024-05-09T10:03:00.076Z,14.86
2024-05-09T10:05:27.651Z,14.61
2024-05-09T10:07:55.011Z,14.63
2024-05-09T10:10:29.922Z,15.31
2024-05-09T10:13:00.031Z,15.25
2024-05-09T10:15:27.750Z,15.42
2024-05-09T10:17:55.158Z,15.53
2024-05-09T10:20:27.916Z,15.66
2024-05-09T10:22:58.115Z,15.81
2024-05-09T10:25:25.524Z,15.82
2024-05-09T10:27:52.835Z,15.85
2024-05-09T10:30:25.971Z,15.95
2024-05-09T10:32:57.493Z,15.64
2024-05-09T10:35:24.832Z,15.82
2024-05-09T10:37:52.140Z,16.04
2024-05-09T10:40:25.876Z,16.22
2024-05-09T10:42:56.585Z,16.41
2024-05-09T10:45:23.874Z,16.81
2024-05-09T10:47:51.149Z,17.18
2024-05-09T10:50:25.491Z,16.95
2024-05-09T10:52:56.362Z,16.73
2024-05-09T10:55:24.154Z,17.02
2024-05-09T10:57:50.924Z,16.44
2024-05-09T11:00:27.206Z,16.64
2024-05-09T11:02:57.525Z,16.98
2024-05-09T11:05:24.604Z,16.92
2024-05-09T11:07:51.454Z,17.24
2024-05-09T11:10:25.058Z,17.36
2024-05-09T11:12:58.304Z,17.48
2024-05-09T11:15:25.140Z,17.13
2024-05-09T11:17:51.987Z,17.57
2024-05-09T11:20:26.459Z,17.67
2024-05-09T11:22:56.451Z,16.69
2024-05-09T11:25:23.382Z,16.98
2024-05-09T11:27:50.192Z,17.26
2024-05-09T11:30:24.196Z,16.82
2024-05-09T11:32:56.954Z,17.01
2024-05-09T11:35:23.887Z,17.70
2024-05-09T11:37:50.649Z,17.75
2024-05-09T11:40:25.168Z,16.98
2024-05-09T11:42:55.354Z,17.09
2024-05-09T11:45:22.198Z,17.27
2024-05-09T11:47:49.205Z,17.40
2024-05-09T11:50:22.703Z,17.52
2024-05-09T11:52:56.491Z,17.93
2024-05-09T11:55:26.815Z,17.13
2024-05-09T11:57:55.177Z,17.17
2024-05-09T12:00:29.708Z,17.43
2024-05-09T12:03:03.768Z,17.59
2024-05-09T12:05:30.663Z,18.33
2024-05-09T12:07:57.501Z,18.01
2024-05-09T12:10:32.522Z,18.24
2024-05-09T12:13:02.391Z,18.62
2024-05-09T12:15:29.522Z,18.47
2024-05-09T12:17:58.924Z,18.20
2024-05-09T12:20:35.433Z,18.70
2024-05-09T12:23:05.302Z,19.08
2024-05-09T12:25:32.248Z,18.44
2024-05-09T12:27:59.101Z,18.78
2024-05-09T12:30:35.188Z,18.00
2024-05-09T12:33:05.793Z,18.03
2024-05-09T12:35:33.012Z,18.20
2024-05-09T12:38:00.010Z,18.44
2024-05-09T12:40:35.132Z,18.15
2024-05-09T12:43:05.085Z,18.45
2024-05-09T12:45:32.228Z,18.53
2024-05-09T12:47:59.619Z,18.69
2024-05-09T12:50:32.407Z,18.74
2024-05-09T12:53:01.339Z,18.80
2024-05-09T12:55:29.958Z,19.06
2024-05-09T12:57:58.750Z,18.99
2024-05-09T13:00:31.498Z,19.47
2024-05-09T13:03:01.313Z,19.19
2024-05-09T13:05:29.226Z,19.06
2024-05-09T13:07:57.333Z,18.74
2024-05-09T13:10:31.654Z,18.64
2024-05-09T13:13:01.144Z,18.14
2024-05-09T13:15:28.997Z,18.81
2024-05-09T13:17:58.293Z,19.39
2024-05-09T13:20:32.896Z,18.70
2024-05-09T13:23:02.464Z,19.31
2024-05-09T13:25:29.723Z,19.46
2024-05-09T13:27:57.168Z,19.46
2024-05-09T13:30:30.181Z,19.10
2024-05-09T13:33:06.639Z,19.03
2024-05-09T13:35:35.673Z,19.48
2024-05-09T13:38:03.730Z,19.72
2024-05-09T13:40:34.668Z,19.63
2024-05-09T13:43:03.679Z,20.13
2024-05-09T13:45:31.061Z,19.72
2024-05-09T13:47:58.483Z,19.09
2024-05-09T13:50:32.822Z,19.80
2024-05-09T13:53:06.797Z,18.84
2024-05-09T13:55:35.532Z,19.81
2024-05-09T13:58:02.986Z,19.70
2024-05-09T14:00:42.169Z,20.12
2024-05-09T14:03:14.651Z,19.87
2024-05-09T14:05:42.291Z,19.99
2024-05-09T14:08:09.671Z,20.30
2024-05-09T14:10:37.122Z,20.12
2024-05-09T14:13:04.400Z,20.16
2024-05-09T14:15:31.756Z,20.22
2024-05-09T14:17:59.033Z,19.69
2024-05-09T14:20:31.189Z,19.59
2024-05-09T14:23:00.079Z,19.81
2024-05-09T14:25:43.444Z,20.36
2024-05-09T14:28:17.436Z,19.94
2024-05-09T14:30:44.444Z,19.65
2024-05-09T14:33:12.228Z,19.79
2024-05-09T14:35:51.955Z,19.63
2024-05-09T14:38:20.786Z,19.37
2024-05-09T14:40:47.719Z,19.63
2024-05-09T14:43:15.254Z,19.44
2024-05-09T14:45:43.136Z,19.70
2024-05-09T14:48:10.597Z,19.62
2024-05-09T14:50:39.525Z,20.15
2024-05-09T14:53:07.895Z,19.86
2024-05-09T14:55:34.999Z,19.80
2024-05-09T14:58:02.168Z,19.60
2024-05-09T15:00:33.481Z,20.07
2024-05-09T15:03:03.270Z,20.61
2024-05-09T15:05:30.453Z,20.40
2024-05-09T15:07:57.398Z,19.91
2024-05-09T15:10:33.172Z,20.39
2024-05-09T15:13:02.358Z,20.48
2024-05-09T15:15:29.306Z,20.73
2024-05-09T15:17:56.250Z,20.72
2024-05-09T15:20:30.963Z,21.07
2024-05-09T15:23:02.095Z,20.97
2024-05-09T15:25:29.091Z,20.87
2024-05-09T15:27:56.336Z,19.90
2024-05-09T15:30:30.905Z,20.28
2024-05-09T15:33:01.117Z,20.01
2024-05-09T15:35:28.631Z,20.10
2024-05-09T15:37:55.863Z,19.89
2024-05-09T15:40:31.651Z,20.31
2024-05-09T15:43:05.763Z,20.15
2024-05-09T15:45:32.938Z,19.94
2024-05-09T15:48:00.136Z,19.67
2024-05-09T15:50:35.985Z,19.75
2024-05-09T15:53:07.219Z,19.65
2024-05-09T15:55:37.418Z,19.34
2024-05-09T15:58:04.938Z,19.48
2024-05-09T16:00:38.107Z,19.64
2024-05-09T16:03:08.354Z,19.36
2024-05-09T16:05:35.442Z,19.44
2024-05-09T16:08:02.314Z,19.51
2024-05-09T16:10:32.765Z,19.60
2024-05-09T16:13:01.459Z,19.76
2024-05-09T16:15:28.632Z,19.76
2024-05-09T16:17:55.653Z,20.06
2024-05-09T16:20:33.946Z,19.91
2024-05-09T16:23:06.057Z,20.00
2024-05-09T16:25:32.940Z,20.35
2024-05-09T16:27:59.885Z,20.02
2024-05-09T16:30:33.901Z,19.82
2024-05-09T16:33:03.037Z,19.67
2024-05-09T16:35:30.331Z,20.07
2024-05-09T16:37:57.526Z,20.50
2024-05-09T16:40:33.875Z,19.50
2024-05-09T16:43:06.514Z,19.97
2024-05-09T16:45:33.815Z,19.03
2024-05-09T16:48:00.962Z,19.50
2024-05-09T16:50:32.612Z,20.18
2024-05-09T16:53:01.389Z,19.85
2024-05-09T16:55:28.368Z,19.72
2024-05-09T16:57:55.246Z,18.94
2024-05-09T17:00:31.364Z,19.24
2024-05-09T17:03:06.772Z,19.78
2024-05-09T17:05:34.292Z,20.02
2024-05-09T17:08:01.507Z,19.39
2024-05-09T17:10:32.949Z,20.06
2024-05-09T17:13:02.018Z,19.92
2024-05-09T17:15:29.003Z,20.44
2024-05-09T17:17:55.851Z,19.73
2024-05-09T17:20:29.767Z,19.37
2024-05-09T17:23:00.938Z,19.00
2024-05-09T17:25:28.064Z,18.97
2024-05-09T17:27:54.875Z,19.26
2024-05-09T17:30:29.014Z,19.82
2024-05-09T17:33:01.974Z,19.09
2024-05-09T17:35:29.036Z,19.42
2024-05-09T17:37:56.168Z,19.36
2024-05-09T17:40:30.965Z,19.49
2024-05-09T17:43:01.950Z,20.02
2024-05-09T17:45:29.327Z,19.81
2024-05-09T17:47:56.834Z,20.78
2024-05-09T17:50:30.881Z,20.64
2024-05-09T17:53:02.675Z,21.14
2024-05-09T17:55:30.196Z,18.91
2024-05-09T17:57:58.761Z,19.27
2024-05-09T18:00:36.450Z,19.73
2024-05-09T18:03:07.400Z,20.16
2024-05-09T18:05:35.569Z,18.61
2024-05-09T18:08:03.612Z,18.87
2024-05-09T18:10:36.652Z,18.89
2024-05-09T18:13:07.073Z,18.72
2024-05-09T18:15:34.878Z,18.54
2024-05-09T18:18:02.847Z,17.36
2024-05-09T18:20:39.342Z,17.06
2024-05-09T18:23:10.873Z,16.97
2024-05-09T18:25:38.184Z,17.15
2024-05-09T18:28:05.425Z,17.01
2024-05-09T18:30:35.537Z,17.43
2024-05-09T18:33:05.341Z,17.61
2024-05-09T18:35:33.901Z,18.11
2024-05-09T18:38:01.090Z,17.81
2024-05-09T18:40:34.044Z,17.50
2024-05-09T18:43:04.209Z,17.98
2024-05-09T18:45:32.001Z,17.24
2024-05-09T18:47:59.516Z,17.74
2024-05-09T18:50:34.383Z,17.72
2024-05-09T18:53:04.672Z,17.35
2024-05-09T18:55:31.431Z,17.91
2024-05-09T18:57:58.270Z,17.87
2024-05-09T19:00:33.517Z,18.02
2024-05-09T19:03:04.103Z,18.00
2024-05-09T19:05:31.259Z,17.84
2024-05-09T19:08:01.360Z,18.26
2024-05-09T19:10:33.824Z,17.80
2024-05-09T19:13:05.746Z,17.59
2024-05-09T19:15:36.311Z,17.29
2024-05-09T19:18:03.210Z,17.66
2024-05-09T19:20:34.286Z,16.35
2024-05-09T19:23:02.686Z,16.57
2024-05-09T19:28:17.326Z,17.11
2024-05-09T19:28:29.508Z,16.98
2024-05-09T19:30:56.597Z,16.75
2024-05-09T19:33:23.471Z,16.65
2024-05-09T19:35:50.301Z,16.45
2024-05-09T19:38:17.185Z,16.89
2024-05-09T19:40:44.092Z,16.90
2024-05-09T19:43:10.859Z,16.87
2024-05-09T19:45:37.748Z,16.84
2024-05-09T19:48:05.114Z,16.91
2024-05-09T19:50:40.924Z,16.68
2024-05-09T19:53:11.334Z,16.60
2024-05-09T19:55:38.509Z,16.01
2024-05-09T19:58:06.530Z,16.06
2024-05-09T20:00:36.540Z,16.07
2024-05-09T20:03:05.271Z,15.85
2024-05-09T20:05:32.450Z,15.36
2024-05-09T20:07:59.423Z,14.44
2024-05-09T20:10:31.488Z,14.16
2024-05-09T20:13:00.547Z,14.34
2024-05-09T20:15:27.440Z,14.11
2024-05-09T20:17:55.297Z,14.55
2024-05-09T20:22:52.015Z,14.87
2024-05-09T20:25:18.890Z,14.91
2024-05-09T20:27:45.889Z,14.81
2024-05-09T20:30:17.246Z,15.18
2024-05-09T20:32:51.687Z,15.19
2024-05-09T20:35:18.502Z,15.35
2024-05-09T20:37:45.291Z,15.09
2024-05-09T20:40:18.429Z,15.06
2024-05-09T20:42:52.237Z,15.19
2024-05-09T20:45:18.968Z,15.14
2024-05-09T20:47:45.722Z,14.93
2024-05-09T20:50:23.049Z,14.35
2024-05-09T20:52:55.794Z,14.17
2024-05-09T20:55:31.877Z,14.40
2024-05-09T20:57:59.114Z,14.22
2024-05-09T21:00:35.142Z,14.09
2024-05-09T21:03:07.640Z,13.64
2024-05-09T21:05:35.627Z,13.50
2024-05-09T21:08:03.178Z,13.68
2024-05-09T21:10:33.210Z,13.65
2024-05-09T21:13:02.976Z,13.34
2024-05-09T21:15:30.629Z,13.16
2024-05-09T21:17:57.512Z,13.38
2024-05-09T21:20:30.439Z,13.69
2024-05-09T21:22:59.013Z,13.98
2024-05-09T21:25:25.894Z,13.96
2024-05-09T21:27:52.974Z,13.58
2024-05-09T21:30:31.293Z,13.28
2024-05-09T21:33:05.840Z,13.03
2024-05-09T21:35:32.878Z,13.47
2024-05-09T21:37:59.687Z,13.49
2024-05-09T21:40:33.470Z,13.02
2024-05-09T21:43:02.530Z,12.99
2024-05-09T21:45:29.389Z,13.03
2024-05-09T21:47:56.323Z,13.51
2024-05-09T21:50:28.768Z,13.58
2024-05-09T21:53:03.414Z,13.01
2024-05-09T21:55:30.290Z,13.28
2024-05-09T21:57:57.220Z,13.41
2024-05-09T22:00:32.120Z,13.69
2024-05-09T22:03:03.731Z,13.30
2024-05-09T22:05:30.910Z,13.19
2024-05-09T22:07:57.795Z,12.61
2024-05-09T22:10:30.871Z,12.14
2024-05-09T22:13:01.895Z,12.19
2024-05-09T22:15:29.340Z,12.51
2024-05-09T22:17:57.506Z,12.67
2024-05-09T22:20:34.231Z,12.66
2024-05-09T22:23:05.116Z,12.41
2024-05-09T22:25:33.007Z,11.97
2024-05-09T22:28:00.891Z,12.68
2024-05-09T22:30:35.664Z,12.96
2024-05-09T22:33:06.251Z,13.25
2024-05-09T22:35:33.678Z,13.62
2024-05-09T22:38:00.911Z,13.75
2024-05-09T22:40:38.603Z,13.74
2024-05-09T22:43:13.994Z,13.55
2024-05-09T22:45:41.376Z,13.40
2024-05-09T22:48:09.236Z,13.29
2024-05-09T22:50:36.630Z,13.79
2024-05-09T22:53:03.868Z,13.52
2024-05-09T22:55:31.014Z,12.86
2024-05-09T22:57:58.213Z,12.88
2024-05-09T23:00:31.429Z,13.06
2024-05-09T23:03:00.120Z,13.29
2024-05-09T23:05:27.566Z,13.28
2024-05-09T23:07:54.950Z,13.53
2024-05-09T23:10:30.807Z,13.25
2024-05-09T23:13:02.007Z,12.82
2024-05-09T23:15:28.882Z,13.22
2024-05-09T23:17:55.829Z,13.25
2024-05-09T23:20:33.255Z,12.47
2024-05-09T23:23:04.698Z,12.66
2024-05-09T23:25:31.423Z,12.95
2024-05-09T23:27:58.253Z,13.16
2024-05-09T23:30:33.958Z,13.29
2024-05-09T23:33:05.105Z,13.39
2024-05-09T23:35:32.010Z,13.12
2024-05-09T23:37:58.727Z,12.98
2024-05-09T23:40:36.735Z,13.02
2024-05-09T23:43:06.967Z,13.25
2024-05-09T23:45:34.069Z,13.15
2024-05-09T23:48:01.290Z,13.12
2024-05-09T23:50:34.518Z,12.86
2024-05-09T23:53:04.482Z,13.03
2024-05-09T23:55:31.924Z,13.05
2024-05-09T23:57:59.567Z,12.97
